Flight Track Log - Related Links

Times and Time Zones

All times are in EST time to prevent confusion due to time zone crossing. See the UCA3599 flight status page for this flight to view local times or setup timezone preferences in your user account.

Time Position Orientation Groundspeed Altitude Reporting Facility
EST Latitude Longitude Course Direction KTS MPH feet Rate Location/Type
Sat 06:00:56 AM 42.1567 -75.9375 212° Southwest 178 205 3,500  Level New York Center
Sat 06:01:56 AM 42.1122 -75.9006 148° Southeast 183 211 4,900 1,488 Climbing New York Center
Sat 06:02:57 AM 42.0622 -75.9050 184° South 188 216 6,500 1,537 Climbing New York Center
Sat 06:03:57 AM 42.0189 -75.9436 214° Southwest 180 207 8,000 1,513 Climbing New York Center
Sat 06:04:00 AM 41.8962 -76.1282 212° Southwest  Level Estimated
Sat 06:04:56 AM 41.9694 -75.9817 210° Southwest 191 220 9,500  Level New York Center
Sat 06:05:57 AM 41.9219 -76.0197 211° Southwest 196 226 10,600 1,100 Climbing New York Center
Sat 06:06:56 AM 41.8744 -76.0578 211° Southwest 201 231 11,700 1,210 Climbing New York Center
Sat 06:07:56 AM 41.8333 -76.0906 211° Southwest 206 237 13,000 1,339 Climbing New York Center
Sat 06:08:57 AM 41.7775 -76.1306 208° Southwest 201 231 14,400 1,268 Climbing New York Center
Sat 06:09:59 AM 41.7300 -76.1658 209° Southwest 201 231 15,600 793 Climbing New York Center
Sat 06:10:58 AM 41.6803 -76.2061 211° Southwest 208 239 16,000 205 Climbing New York Center
Sat 06:11:56 AM 41.6264 -76.2461 209° Southwest 233 268 16,000  Level New York Center
Sat 06:12:56 AM 41.5658 -76.2939 211° Southwest 244 281 16,000  Level New York Center
Sat 06:13:59 AM 41.4989 -76.3439 209° Southwest 257 296 16,000  Level New York Center
Sat 06:14:57 AM 41.4386 -76.3886 209° Southwest 257 296 16,000  Level New York Center
Sat 06:15:57 AM 41.3781 -76.4361 210° Southwest 257 296 16,000  Level New York Center
Sat 06:16:58 AM 41.3239 -76.4758 209° Southwest 257 296 16,000  Level New York Center
Sat 06:17:58 AM 41.2589 -76.5283 211° Southwest 257 296 16,000  Level New York Center
Sat 06:18:56 AM 41.1983 -76.5728 209° Southwest 257 296 16,000  Level New York Center
Sat 06:19:56 AM 41.1397 -76.6200 211° Southwest 257 296 16,000  Level New York Center
Sat 06:20:58 AM 41.0792 -76.6672 210° Southwest 257 296 16,000  Level New York Center
Sat 06:21:56 AM 41.0186 -76.7114 209° Southwest 257 296 16,000  Level New York Center
Sat 06:22:57 AM 40.9600 -76.7558 210° Southwest 257 296 16,000  Level New York Center
Sat 06:23:58 AM 40.9058 -76.7978 210° Southwest 257 296 16,000 -50 Level New York Center
Sat 06:24:56 AM 40.8408 -76.8469 210° Southwest 257 296 15,900 -51 Descending New York Center
Sat 06:25:56 AM 40.7783 -76.8878 206° Southwest 257 296 15,900  Level New York Center
Sat 06:26:57 AM 40.7083 -76.9117 195° South 257 296 15,900 50 Level New York Center
Sat 06:27:56 AM 40.6383 -76.9328 193° South 262 302 16,000 50 Climbing New York Center
Sat 06:28:57 AM 40.5686 -76.9539 193° South 262 302 16,000  Level New York Center
Sat 06:29:56 AM 40.4986 -76.9750 193° South 267 307 16,000  Level New York Center
Sat 06:30:57 AM 40.4306 -76.9989 195° South 267 307 16,000  Level New York Center
Sat 06:31:56 AM 40.3608 -77.0197 193° South 267 307 16,000 -353 Level New York Center
Sat 06:32:56 AM 40.2867 -77.0403 192° South 267 307 15,300 -689 Descending New York Center
Sat 06:33:58 AM 40.2125 -77.0636 194° South 267 307 14,600 -700 Descending New York Center
Sat 06:34:56 AM 40.1447 -77.0847 193° South 273 314 13,900 -1,085 Descending New York Center
Sat 06:36:55 AM 40.0000 -77.1333 194° South 275 316 11,400 -1,162 Descending Potomac TRACON
Sat 06:38:07 AM 39.9000 -77.1667 194° South 279 321 10,200 -1,050 Descending Potomac TRACON
Sat 06:38:55 AM 39.8333 -77.1833 191° South 271 312 9,300 -667 Descending Potomac TRACON
Sat 06:39:55 AM 39.7667 -77.2000 191° South 272 313 9,000 -444 Descending Potomac TRACON
Sat 06:40:43 AM 39.7167 -77.2167 194° South 264 304 8,500 -667 Descending Potomac TRACON
Sat 06:41:43 AM 39.6667 -77.2833 226° Southwest 261 300 7,800 -700 Descending Potomac TRACON
Sat 06:42:43 AM 39.6167 -77.3333 218° Southwest 250 288 7,100 -400 Descending Potomac TRACON
Sat 06:43:43 AM 39.5333 -77.3500 189° South 267 307 7,000 -53 Descending Potomac TRACON
Sat 06:44:37 AM 39.4833 -77.3500 180° South 258 297 7,000  Level Potomac TRACON
Sat 06:45:37 AM 39.4000 -77.3667 189° South 253 291 7,000  Level Potomac TRACON
Sat 06:46:37 AM 39.3333 -77.3667 180° South 260 299 7,000 -421 Level Potomac TRACON
Sat 06:47:31 AM 39.2667 -77.3667 180° South 266 306 6,200 -944 Descending Potomac TRACON
Sat 06:48:25 AM 39.2000 -77.3667 180° South 259 298 5,300 -1,000 Descending Potomac TRACON
Sat 06:49:31 AM 39.1167 -77.3500 171° South 260 299 4,200 -645 Descending Potomac TRACON
Sat 06:50:26 AM 39.0667 -77.3500 180° South 248 285 4,000 -365 Descending Potomac TRACON
Sat 06:51:26 AM 39.0000 -77.3500 180° South 244 281 3,500 -500 Descending Potomac TRACON
Sat 06:52:26 AM 38.9333 -77.3500 180° South 234 269 3,000 -250 Descending Potomac TRACON
Sat 06:53:26 AM 38.8667 -77.3500 180° South 233 268 3,000 -300 Level Potomac TRACON
Sat 06:54:26 AM 38.8000 -77.3667 191° South 240 276 2,400 -500 Descending Potomac TRACON
Sat 06:55:26 AM 38.7667 -77.4167 229° Southwest 243 280 2,000 -211 Descending Potomac TRACON
Sat 06:56:20 AM 38.8167 -77.4333 345° North 226 260 2,000 -263 Level Potomac TRACON
Sat 06:57:20 AM 38.8667 -77.4333 360° North 167 192 1,500 -650 Descending Potomac TRACON
Sat 06:58:20 AM 38.9000 -77.4333 360° North 140 161 700 -800 Descending Potomac TRACON
Sat 07:00:00 AM 38.9333 -77.4500 349° North  Level FlightAware Approximate
Sat 07:07:00 AM 38.9474 -77.4599 349° North  Level Estimated

Login

Don't have an account? Register now (free) for customized features, flight alerts, and more!